Barcelona Knutsen — EACW — position and weather

sailwx.info

Track history (hours):
 
Tides and Currents Weather Stations Pressure Air Temp Water Temp Dewpoint Dewpoint Depression Visibility Wind Speed Wind Dir Waves Ship Positions

Barcelona Knutsen

Last reported at 2016-Jun-24 10:33 UTC. Time now 2016-Jun-26 21:02 UTC.
Position N 29°27' E 122°47'.

Length 290 m; draft 9.7 m.

Type: Tanker. MMSI: 224436000.

Date/timePositionNaut miles runAvg speedWind from/ knotsBaromVisibWave heightAir tempDewpointWater temp
2016-Jun-24 10:33N 29°27' E 122°47'1413.7
2016-Jun-24 09:33N 29°35' E 122°34'1614.6
2016-Jun-24 08:26N 29°44' E 122°19'1011.4
2016-Jun-24 07:33N 29°52' E 122°12'6 0.9
2016-Jun-24 01:23N 29°54' E 122°05'0 0.0
2016-Jun-24 00:23N 29°54' E 122°05'0 0.0
2016-Jun-23 23:23N 29°54' E 122°05'0 0.0
2016-Jun-23 22:29N 29°54' E 122°05'0 0.0
2016-Jun-23 21:29N 29°54' E 122°05'0 0.0
2016-Jun-23 20:29N 29°54' E 122°05'0 0.0
2016-Jun-23 18:11N 29°54' E 122°05'0 0.0
2016-Jun-23 15:29N 29°54' E 122°05'0 0.0
2016-Jun-23 14:29N 29°54' E 122°05'0 0.0
2016-Jun-23 05:23N 29°54' E 122°05'0 0.0
2016-Jun-23 02:05N 29°54' E 122°05'0 0.0
2016-Jun-23 01:17N 29°54' E 122°05'0 0.0
2016-Jun-22 21:29N 29°54' E 122°05'0 0.0
2016-Jun-22 20:17N 29°54' E 122°05'0 0.0
2016-Jun-22 19:23N 29°54' E 122°05'0 0.0
2016-Jun-22 18:11N 29°54' E 122°05'0 0.0
2016-Jun-22 17:23N 29°54' E 122°05'0 0.0
2016-Jun-22 16:17N 29°54' E 122°05'0 0.0
2016-Jun-22 15:29N 29°54' E 122°05'0 0.0
2016-Jun-22 09:29N 29°54' E 122°05'0 0.0
2016-Jun-22 08:17N 29°54' E 122°05'0 0.0
2016-Jun-22 06:23N 29°54' E 122°05'0 0.0
2016-Jun-22 04:33N 29°54' E 122°05'2 1.8
2016-Jun-22 03:33N 29°55' E 122°07'10 9.2
2016-Jun-22 02:31N 29°48' E 122°15'1010.3
2016-Jun-22 01:33N 29°43' E 122°24'9 7.9
2016-Jun-22 00:27N 29°42' E 122°34'1 0.7
2016-Jun-21 22:31N 29°43' E 122°35'0 0.0
2016-Jun-21 15:25N 29°44' E 122°35'0 0.1
2016-Jun-21 11:04N 29°43' E 122°35'0 0.0
2016-Jun-21 10:31N 29°43' E 122°35'0 0.0
2016-Jun-21 03:28N 29°43' E 122°35'0 0.0
2016-Jun-20 20:28N 29°43' E 122°35'0 0.0
2016-Jun-20 10:19N 29°43' E 122°35'0 0.0
2016-Jun-20 09:31N 29°43' E 122°35'0 0.1
2016-Jun-20 08:16N 29°43' E 122°35'0 0.1
2016-Jun-20 04:13N 29°43' E 122°35'0 0.1
2016-Jun-20 03:04N 29°43' E 122°35'0 0.0
2016-Jun-19 19:31N 29°43' E 122°35'0 0.1
2016-Jun-19 15:25N 29°43' E 122°35'0 0.1
2016-Jun-19 11:28N 29°43' E 122°35'0 0.0
2016-Jun-19 09:13N 29°43' E 122°35'1 0.1
2016-Jun-19 00:30N 29°44' E 122°35'5 5.0
2016-Jun-18 23:30N 29°43' E 122°41'  
Track history (hours):
 
Tides and Currents Weather Stations Pressure Air Temp Water Temp Dewpoint Dewpoint Depression Visibility Wind Speed Wind Dir Waves Ship Positions

Barcelona Knutsen

Last reported at 2016-Jun-24 10:33 UTC. Time now 2016-Jun-26 21:02 UTC.
Position N 29°27' E 122°47'.

Length 290 m; draft 9.7 m.

Type: Tanker. MMSI: 224436000.

Date/timePositionNaut miles runAvg speedWind from/ knotsBaromVisibWave heightAir tempDewpointWater temp
2016-Jun-24 10:33N 29°27' E 122°47'1413.7
2016-Jun-24 09:33N 29°35' E 122°34'1614.6
2016-Jun-24 08:26N 29°44' E 122°19'1011.4
2016-Jun-24 07:33N 29°52' E 122°12'6 0.9
2016-Jun-24 01:23N 29°54' E 122°05'0 0.0
2016-Jun-24 00:23N 29°54' E 122°05'0 0.0
2016-Jun-23 23:23N 29°54' E 122°05'0 0.0
2016-Jun-23 22:29N 29°54' E 122°05'0 0.0
2016-Jun-23 21:29N 29°54' E 122°05'0 0.0
2016-Jun-23 20:29N 29°54' E 122°05'0 0.0
2016-Jun-23 18:11N 29°54' E 122°05'0 0.0
2016-Jun-23 15:29N 29°54' E 122°05'0 0.0
2016-Jun-23 14:29N 29°54' E 122°05'0 0.0
2016-Jun-23 05:23N 29°54' E 122°05'0 0.0
2016-Jun-23 02:05N 29°54' E 122°05'0 0.0
2016-Jun-23 01:17N 29°54' E 122°05'0 0.0
2016-Jun-22 21:29N 29°54' E 122°05'0 0.0
2016-Jun-22 20:17N 29°54' E 122°05'0 0.0
2016-Jun-22 19:23N 29°54' E 122°05'0 0.0
2016-Jun-22 18:11N 29°54' E 122°05'0 0.0
2016-Jun-22 17:23N 29°54' E 122°05'0 0.0
2016-Jun-22 16:17N 29°54' E 122°05'0 0.0
2016-Jun-22 15:29N 29°54' E 122°05'0 0.0
2016-Jun-22 09:29N 29°54' E 122°05'0 0.0
2016-Jun-22 08:17N 29°54' E 122°05'0 0.0
2016-Jun-22 06:23N 29°54' E 122°05'0 0.0
2016-Jun-22 04:33N 29°54' E 122°05'2 1.8
2016-Jun-22 03:33N 29°55' E 122°07'10 9.2
2016-Jun-22 02:31N 29°48' E 122°15'1010.3
2016-Jun-22 01:33N 29°43' E 122°24'9 7.9
2016-Jun-22 00:27N 29°42' E 122°34'1 0.7
2016-Jun-21 22:31N 29°43' E 122°35'0 0.0
2016-Jun-21 15:25N 29°44' E 122°35'0 0.1
2016-Jun-21 11:04N 29°43' E 122°35'0 0.0
2016-Jun-21 10:31N 29°43' E 122°35'0 0.0
2016-Jun-21 03:28N 29°43' E 122°35'0 0.0
2016-Jun-20 20:28N 29°43' E 122°35'0 0.0
2016-Jun-20 10:19N 29°43' E 122°35'0 0.0
2016-Jun-20 09:31N 29°43' E 122°35'0 0.1
2016-Jun-20 08:16N 29°43' E 122°35'0 0.1
2016-Jun-20 04:13N 29°43' E 122°35'0 0.1
2016-Jun-20 03:04N 29°43' E 122°35'0 0.0
2016-Jun-19 19:31N 29°43' E 122°35'0 0.1
2016-Jun-19 15:25N 29°43' E 122°35'0 0.1
2016-Jun-19 11:28N 29°43' E 122°35'0 0.0
2016-Jun-19 09:13N 29°43' E 122°35'1 0.1
2016-Jun-19 00:30N 29°44' E 122°35'5 5.0
2016-Jun-18 23:30N 29°43' E 122°41'  

Dump ship's entire track history